Dallas Love Field
KDAL : now visible

Airfield :











YOU CAN JOIN US ON...

 
LOGIN :

Register | Disclaimer

   EN    FR    IT 

 









Legend :    VFR   Marginal VFR   IFR   Intensive IFR   Very Intensive IFR
Visi :
Ceiling :
>= 8 km
>= 3000ft
5 to 8 km
1000 to 3000 ft
1500m to 5 km
500 to 1000 ft
800 to 1500m
200 to 500 ft
< 800m
< 200 ft
Symbols :   Thunderstorms  Fog  Heavy snow  Heavy precipitations  Wind > 20 kt






- Airport Elevation : 487 ft
- IATA code : DAL


KDAL - Dallas Love Field

CURRENT METAR :
  • 230153Z 12005KT 10SM OVC043 17/07 A2998 RMK AO2 RAB17E27 SLP148 P0000 T01670067

EXPIRED METARs :
  • 230053Z 14010G19KT 10SM OVC044 17/06 A2998 RMK AO2 SLP150 T01720056
  • 222353Z 15008G21KT 10SM BKN048 OVC070 18/05 A2999 RMK AO2 SLP151 T01780050 10183 20167 56009

TAF KDAL
Valid from the 23 at 00:00 until the 24 at 00:00 UTC


222338Z 2300/2324 13011KT P6SM OVC050
TEMPO 2304/2306 OVC025
FM230600 14009KT P6SM OVC025
FM230800 15009KT P6SM OVC015
FM231100 15009KT 5SM BR VCSH OVC008
TEMPO 2312/2316 -SHRA OVC004
FM231600 16011KT 6SM BR OVC008
FM231800 16012KT 6SM TSRA BR OVC007CB
FM232200 16013KT 5SM BR VCTS OVC003CB
KZFW FIR / North America



MET'MAP, your aeronautical weather chart ! - Copyright ORBIFLY December 2007 - Disclaimer

ORBIFLY MET'MAP TEAM :

Programming & Development : Alexandra Zaïnal
Concept & original design : Baudouin d'Aumeries
Assistance for programming : Marc-Olivier Méhu
Technical & hardware support : Manuel Goepfert

Contact : metmap@orbifly.com




SOURCES & CREDITS :

   NOAA       Earth
Advisory